sensor_id;sensor_type;location;lat;lon;timestamp;temperature;humidity
23403;DHT22;11874;48.228;11.684;2023-06-22T07:11:11;24.10;98.10
23403;DHT22;11874;48.228;11.684;2023-06-22T07:13:39;23.90;98.30
23403;DHT22;11874;48.228;11.684;2023-06-22T07:16:07;24.00;98.40
23403;DHT22;11874;48.228;11.684;2023-06-22T07:18:35;23.90;98.50
23403;DHT22;11874;48.228;11.684;2023-06-22T07:21:03;24.00;98.50
23403;DHT22;11874;48.228;11.684;2023-06-22T07:23:33;24.00;98.50
23403;DHT22;11874;48.228;11.684;2023-06-22T07:26:02;24.00;98.40
23403;DHT22;11874;48.228;11.684;2023-06-22T07:28:34;24.00;98.50
23403;DHT22;11874;48.228;11.684;2023-06-22T07:31:04;24.00;98.40
23403;DHT22;11874;48.228;11.684;2023-06-22T07:33:32;24.10;98.40
23403;DHT22;11874;48.228;11.684;2023-06-22T07:36:00;24.10;98.40
23403;DHT22;11874;48.228;11.684;2023-06-22T07:38:29;24.10;98.40
23403;DHT22;11874;48.228;11.684;2023-06-22T07:40:57;24.10;98.40
23403;DHT22;11874;48.228;11.684;2023-06-22T07:43:25;24.20;98.40
23403;DHT22;11874;48.228;11.684;2023-06-22T07:45:54;24.20;98.40
23403;DHT22;11874;48.228;11.684;2023-06-22T07:48:22;24.20;98.40
23403;DHT22;11874;48.228;11.684;2023-06-22T07:50:51;24.20;98.40
23403;DHT22;11874;48.228;11.684;2023-06-22T07:53:20;24.20;98.40
23403;DHT22;11874;48.228;11.684;2023-06-22T07:55:48;24.30;98.30
23403;DHT22;11874;48.228;11.684;2023-06-22T07:58:16;24.30;98.30
23403;DHT22;11874;48.228;11.684;2023-06-22T08:00:46;24.40;98.40
23403;DHT22;11874;48.228;11.684;2023-06-22T08:03:17;24.40;98.40
23403;DHT22;11874;48.228;11.684;2023-06-22T08:05:45;24.40;98.30
23403;DHT22;11874;48.228;11.684;2023-06-22T08:08:13;24.40;98.30
23403;DHT22;11874;48.228;11.684;2023-06-22T08:10:41;24.50;98.30
23403;DHT22;11874;48.228;11.684;2023-06-22T08:13:10;24.50;98.30
23403;DHT22;11874;48.228;11.684;2023-06-22T08:15:38;24.50;98.30
23403;DHT22;11874;48.228;11.684;2023-06-22T08:18:06;24.50;98.30
23403;DHT22;11874;48.228;11.684;2023-06-22T08:20:36;24.60;98.40
23403;DHT22;11874;48.228;11.684;2023-06-22T08:23:04;24.60;98.30
23403;DHT22;11874;48.228;11.684;2023-06-22T08:25:33;24.70;98.40
23403;DHT22;11874;48.228;11.684;2023-06-22T08:28:01;24.60;98.40
23403;DHT22;11874;48.228;11.684;2023-06-22T08:30:30;24.70;98.50
23403;DHT22;11874;48.228;11.684;2023-06-22T08:32:58;24.70;98.50
23403;DHT22;11874;48.228;11.684;2023-06-22T08:35:27;24.80;98.50
23403;DHT22;11874;48.228;11.684;2023-06-22T08:37:57;24.90;98.50
23403;DHT22;11874;48.228;11.684;2023-06-22T08:40:26;24.90;98.50
23403;DHT22;11874;48.228;11.684;2023-06-22T08:42:56;24.90;98.40
23403;DHT22;11874;48.228;11.684;2023-06-22T08:45:24;25.10;98.50
23403;DHT22;11874;48.228;11.684;2023-06-22T08:47:54;25.00;98.50
23403;DHT22;11874;48.228;11.684;2023-06-22T08:50:22;25.10;98.40
23403;DHT22;11874;48.228;11.684;2023-06-22T08:52:51;25.10;98.30
23403;DHT22;11874;48.228;11.684;2023-06-22T08:55:20;25.10;98.30
23403;DHT22;11874;48.228;11.684;2023-06-22T08:58:03;25.10;98.30
23403;DHT22;11874;48.228;11.684;2023-06-22T09:00:33;25.20;98.40
23403;DHT22;11874;48.228;11.684;2023-06-22T09:03:02;25.20;98.40
23403;DHT22;11874;48.228;11.684;2023-06-22T09:05:32;25.10;98.50
23403;DHT22;11874;48.228;11.684;2023-06-22T09:08:00;25.20;98.50
23403;DHT22;11874;48.228;11.684;2023-06-22T09:10:30;25.20;98.50
23403;DHT22;11874;48.228;11.684;2023-06-22T09:12:58;25.20;98.30
23403;DHT22;11874;48.228;11.684;2023-06-22T09:15:26;25.30;98.10
23403;DHT22;11874;48.228;11.684;2023-06-22T09:17:57;25.30;98.10
23403;DHT22;11874;48.228;11.684;2023-06-22T09:20:25;25.30;98.20
23403;DHT22;11874;48.228;11.684;2023-06-22T09:22:54;25.40;98.20
23403;DHT22;11874;48.228;11.684;2023-06-22T09:25:22;25.40;98.30
23403;DHT22;11874;48.228;11.684;2023-06-22T09:27:51;25.40;98.30
23403;DHT22;11874;48.228;11.684;2023-06-22T09:30:20;25.40;98.30
23403;DHT22;11874;48.228;11.684;2023-06-22T09:32:48;25.40;98.40
23403;DHT22;11874;48.228;11.684;2023-06-22T09:35:16;25.40;98.30
23403;DHT22;11874;48.228;11.684;2023-06-22T09:37:44;25.40;98.40
23403;DHT22;11874;48.228;11.684;2023-06-22T09:40:12;25.50;98.40
23403;DHT22;11874;48.228;11.684;2023-06-22T09:42:43;25.50;98.50
23403;DHT22;11874;48.228;11.684;2023-06-22T09:45:13;25.60;98.40
23403;DHT22;11874;48.228;11.684;2023-06-22T09:47:41;25.60;98.50
23403;DHT22;11874;48.228;11.684;2023-06-22T09:50:10;25.60;98.40
23403;DHT22;11874;48.228;11.684;2023-06-22T09:52:38;25.70;98.40
23403;DHT22;11874;48.228;11.684;2023-06-22T09:55:14;25.70;98.20
23403;DHT22;11874;48.228;11.684;2023-06-22T09:57:43;25.70;97.90
23403;DHT22;11874;48.228;11.684;2023-06-22T10:00:14;25.70;97.70
23403;DHT22;11874;48.228;11.684;2023-06-22T10:02:43;25.70;97.80
23403;DHT22;11874;48.228;11.684;2023-06-22T10:05:11;25.70;98.00
23403;DHT22;11874;48.228;11.684;2023-06-22T10:07:40;25.80;97.90
23403;DHT22;11874;48.228;11.684;2023-06-22T10:10:11;25.90;97.70
23403;DHT22;11874;48.228;11.684;2023-06-22T10:12:42;25.80;97.40
23403;DHT22;11874;48.228;11.684;2023-06-22T10:15:11;25.90;97.30
23403;DHT22;11874;48.228;11.684;2023-06-22T10:17:40;25.90;97.20
23403;DHT22;11874;48.228;11.684;2023-06-22T10:20:09;25.90;97.20
23403;DHT22;11874;48.228;11.684;2023-06-22T10:22:40;26.00;97.20
23403;DHT22;11874;48.228;11.684;2023-06-22T10:25:13;26.00;97.10
23403;DHT22;11874;48.228;11.684;2023-06-22T10:27:41;26.10;97.10
23403;DHT22;11874;48.228;11.684;2023-06-22T10:30:10;26.10;97.20
23403;DHT22;11874;48.228;11.684;2023-06-22T10:35:59;26.20;97.10
23403;DHT22;11874;48.228;11.684;2023-06-22T10:38:27;26.00;97.40
23403;DHT22;11874;48.228;11.684;2023-06-22T10:40:56;26.20;97.50
23403;DHT22;11874;48.228;11.684;2023-06-22T10:43:25;26.20;97.40
23403;DHT22;11874;48.228;11.684;2023-06-22T10:45:53;26.30;97.20
23403;DHT22;11874;48.228;11.684;2023-06-22T10:48:28;26.30;97.00
23403;DHT22;11874;48.228;11.684;2023-06-22T10:51:06;26.40;96.90
23403;DHT22;11874;48.228;11.684;2023-06-22T10:53:50;26.40;96.90
23403;DHT22;11874;48.228;11.684;2023-06-22T10:56:38;26.50;97.00
23403;DHT22;11874;48.228;11.684;2023-06-22T10:59:13;26.50;97.00
23403;DHT22;11874;48.228;11.684;2023-06-22T11:01:44;26.60;97.00
23403;DHT22;11874;48.228;11.684;2023-06-22T11:04:20;26.70;96.90
23403;DHT22;11874;48.228;11.684;2023-06-22T11:07:16;26.80;97.00
23403;DHT22;11874;48.228;11.684;2023-06-22T11:10:30;26.90;96.90
23403;DHT22;11874;48.228;11.684;2023-06-22T11:13:06;27.00;96.90
23403;DHT22;11874;48.228;11.684;2023-06-22T11:15:47;27.20;97.00
23403;DHT22;11874;48.228;11.684;2023-06-22T11:18:15;27.20;96.90
23403;DHT22;11874;48.228;11.684;2023-06-22T11:20:43;27.20;96.80
23403;DHT22;11874;48.228;11.684;2023-06-22T11:23:15;27.20;96.80
23403;DHT22;11874;48.228;11.684;2023-06-22T11:25:48;27.20;96.90
23403;DHT22;11874;48.228;11.684;2023-06-22T11:28:16;27.20;96.90
23403;DHT22;11874;48.228;11.684;2023-06-22T11:30:46;27.20;96.80
23403;DHT22;11874;48.228;11.684;2023-06-22T11:33:14;27.20;96.80
23403;DHT22;11874;48.228;11.684;2023-06-22T11:35:42;27.20;97.30
23403;DHT22;11874;48.228;11.684;2023-06-22T11:38:21;27.20;97.00
23403;DHT22;11874;48.228;11.684;2023-06-22T11:41:03;27.20;97.30
23403;DHT22;11874;48.228;11.684;2023-06-22T11:43:34;27.20;97.30
23403;DHT22;11874;48.228;11.684;2023-06-22T11:46:36;27.20;97.50
23403;DHT22;11874;48.228;11.684;2023-06-22T11:49:23;27.20;97.70
23403;DHT22;11874;48.228;11.684;2023-06-22T11:52:10;27.30;97.50
23403;DHT22;11874;48.228;11.684;2023-06-22T11:54:49;27.40;97.20
23403;DHT22;11874;48.228;11.684;2023-06-22T11:57:29;27.50;97.00
23403;DHT22;11874;48.228;11.684;2023-06-22T12:03:18;27.60;97.10
23403;DHT22;11874;48.228;11.684;2023-06-22T12:05:49;27.70;97.20
23403;DHT22;11874;48.228;11.684;2023-06-22T12:08:32;27.80;97.00
23403;DHT22;11874;48.228;11.684;2023-06-22T12:11:02;27.80;96.90
23403;DHT22;11874;48.228;11.684;2023-06-22T12:13:36;27.80;96.80
23403;DHT22;11874;48.228;11.684;2023-06-22T12:16:04;28.00;96.80
23403;DHT22;11874;48.228;11.684;2023-06-22T12:18:38;28.10;96.70
23403;DHT22;11874;48.228;11.684;2023-06-22T12:21:08;28.20;96.40
23403;DHT22;11874;48.228;11.684;2023-06-22T12:23:37;28.20;96.40
23403;DHT22;11874;48.228;11.684;2023-06-22T12:26:09;28.20;96.10
23403;DHT22;11874;48.228;11.684;2023-06-22T12:28:38;28.30;95.90
23403;DHT22;11874;48.228;11.684;2023-06-22T12:31:08;28.40;95.80
23403;DHT22;11874;48.228;11.684;2023-06-22T12:33:36;28.50;95.80
23403;DHT22;11874;48.228;11.684;2023-06-22T12:36:05;28.60;95.90
23403;DHT22;11874;48.228;11.684;2023-06-22T12:41:15;28.80;95.40
23403;DHT22;11874;48.228;11.684;2023-06-22T12:43:48;28.90;95.10
23403;DHT22;11874;48.228;11.684;2023-06-22T12:46:39;28.90;94.80
23403;DHT22;11874;48.228;11.684;2023-06-22T12:49:11;28.90;94.50
23403;DHT22;11874;48.228;11.684;2023-06-22T12:51:39;29.00;94.40
23403;DHT22;11874;48.228;11.684;2023-06-22T12:54:08;29.00;94.30
23403;DHT22;11874;48.228;11.684;2023-06-22T12:56:38;29.00;94.10
23403;DHT22;11874;48.228;11.684;2023-06-22T12:59:07;29.00;93.90
23403;DHT22;11874;48.228;11.684;2023-06-22T13:01:36;29.00;93.80
23403;DHT22;11874;48.228;11.684;2023-06-22T13:04:04;29.00;93.80
23403;DHT22;11874;48.228;11.684;2023-06-22T13:06:32;28.90;93.90
23403;DHT22;11874;48.228;11.684;2023-06-22T13:09:19;29.00;94.00
23403;DHT22;11874;48.228;11.684;2023-06-22T13:11:51;29.00;94.10
23403;DHT22;11874;48.228;11.684;2023-06-22T13:14:20;28.90;94.10
23403;DHT22;11874;48.228;11.684;2023-06-22T13:16:49;28.90;94.00
23403;DHT22;11874;48.228;11.684;2023-06-22T13:19:17;29.00;93.80
23403;DHT22;11874;48.228;11.684;2023-06-22T13:21:48;29.10;93.80
23403;DHT22;11874;48.228;11.684;2023-06-22T13:24:20;29.20;93.80
23403;DHT22;11874;48.228;11.684;2023-06-22T13:26:49;29.20;93.70
23403;DHT22;11874;48.228;11.684;2023-06-22T13:29:18;29.30;93.50
23403;DHT22;11874;48.228;11.684;2023-06-22T13:31:46;29.40;93.20
23403;DHT22;11874;48.228;11.684;2023-06-22T13:34:15;29.50;93.00
23403;DHT22;11874;48.228;11.684;2023-06-22T13:36:46;29.60;93.20
23403;DHT22;11874;48.228;11.684;2023-06-22T13:39:14;29.70;93.20
23403;DHT22;11874;48.228;11.684;2023-06-22T13:41:42;29.70;93.00
23403;DHT22;11874;48.228;11.684;2023-06-22T13:44:11;29.90;92.80
23403;DHT22;11874;48.228;11.684;2023-06-22T13:46:40;30.00;92.60
23403;DHT22;11874;48.228;11.684;2023-06-22T13:49:09;30.00;92.40
23403;DHT22;11874;48.228;11.684;2023-06-22T13:51:38;30.00;92.30
23403;DHT22;11874;48.228;11.684;2023-06-22T13:54:06;30.00;92.10
23403;DHT22;11874;48.228;11.684;2023-06-22T13:56:54;30.00;92.60
23403;DHT22;11874;48.228;11.684;2023-06-22T13:59:22;30.10;92.40
23403;DHT22;11874;48.228;11.684;2023-06-22T14:01:51;30.20;92.40
23403;DHT22;11874;48.228;11.684;2023-06-22T14:04:21;30.40;92.50
23403;DHT22;11874;48.228;11.684;2023-06-22T14:06:57;30.50;92.20
23403;DHT22;11874;48.228;11.684;2023-06-22T14:09:25;30.60;91.80
23403;DHT22;11874;48.228;11.684;2023-06-22T14:11:54;30.60;91.70
23403;DHT22;11874;48.228;11.684;2023-06-22T14:14:43;30.70;91.60
23403;DHT22;11874;48.228;11.684;2023-06-22T14:17:24;30.80;91.30
23403;DHT22;11874;48.228;11.684;2023-06-22T14:19:58;31.10;92.00
23403;DHT22;11874;48.228;11.684;2023-06-22T14:22:47;32.20;91.10
23403;DHT22;11874;48.228;11.684;2023-06-22T14:25:40;33.90;87.90
23403;DHT22;11874;48.228;11.684;2023-06-22T14:28:12;35.40;84.40
23403;DHT22;11874;48.228;11.684;2023-06-22T14:30:43;36.50;81.20
23403;DHT22;11874;48.228;11.684;2023-06-22T14:33:45;37.40;78.50
23403;DHT22;11874;48.228;11.684;2023-06-22T14:36:52;38.10;75.80
23403;DHT22;11874;48.228;11.684;2023-06-22T14:39:40;38.50;73.00
23403;DHT22;11874;48.228;11.684;2023-06-22T14:42:22;38.70;71.60
23403;DHT22;11874;48.228;11.684;2023-06-22T14:44:53;38.70;70.30
23403;DHT22;11874;48.228;11.684;2023-06-22T14:47:27;38.70;69.10
23403;DHT22;11874;48.228;11.684;2023-06-22T14:49:57;38.70;69.10
23403;DHT22;11874;48.228;11.684;2023-06-22T14:52:53;38.50;67.90
23403;DHT22;11874;48.228;11.684;2023-06-22T14:55:29;38.40;68.40
23403;DHT22;11874;48.228;11.684;2023-06-22T14:58:13;38.40;68.00
23403;DHT22;11874;48.228;11.684;2023-06-22T15:01:15;38.30;67.70
23403;DHT22;11874;48.228;11.684;2023-06-22T15:04:08;38.30;67.20
23403;DHT22;11874;48.228;11.684;2023-06-22T15:06:43;38.10;67.40
23403;DHT22;11874;48.228;11.684;2023-06-22T15:09:11;38.10;66.90
23403;DHT22;11874;48.228;11.684;2023-06-22T15:12:21;38.10;66.40
23403;DHT22;11874;48.228;11.684;2023-06-22T15:15:00;38.20;66.30
23403;DHT22;11874;48.228;11.684;2023-06-22T15:18:30;38.20;65.30
23403;DHT22;11874;48.228;11.684;2023-06-22T15:28:46;38.10;65.10
23403;DHT22;11874;48.228;11.684;2023-06-22T15:31:17;38.20;65.50
23403;DHT22;11874;48.228;11.684;2023-06-22T15:33:46;38.20;65.60
23403;DHT22;11874;48.228;11.684;2023-06-22T15:36:20;38.20;66.10
23403;DHT22;11874;48.228;11.684;2023-06-22T15:41:19;38.00;65.50
23403;DHT22;11874;48.228;11.684;2023-06-22T15:44:27;37.60;64.50
23403;DHT22;11874;48.228;11.684;2023-06-22T15:46:56;37.00;65.00
23403;DHT22;11874;48.228;11.684;2023-06-22T15:49:26;36.70;65.50
23403;DHT22;11874;48.228;11.684;2023-06-22T15:51:57;36.20;66.30
23403;DHT22;11874;48.228;11.684;2023-06-22T15:54:32;36.00;66.70
23403;DHT22;11874;48.228;11.684;2023-06-22T16:00:42;36.00;67.10
23403;DHT22;11874;48.228;11.684;2023-06-22T16:03:18;36.20;67.70
23403;DHT22;11874;48.228;11.684;2023-06-22T16:05:47;36.40;67.90
23403;DHT22;11874;48.228;11.684;2023-06-22T16:08:15;36.40;68.10
23403;DHT22;11874;48.228;11.684;2023-06-22T16:10:43;36.30;68.10
23403;DHT22;11874;48.228;11.684;2023-06-22T16:13:11;36.40;68.10
23403;DHT22;11874;48.228;11.684;2023-06-22T16:15:39;36.20;67.40
23403;DHT22;11874;48.228;11.684;2023-06-22T16:18:09;36.30;67.90
23403;DHT22;11874;48.228;11.684;2023-06-22T16:20:38;36.10;67.80
23403;DHT22;11874;48.228;11.684;2023-06-22T16:23:07;36.10;67.40
23403;DHT22;11874;48.228;11.684;2023-06-22T16:25:36;35.90;67.30
